createdAt,value
2023-12-12T00:01:25.234Z,101603.38
2023-12-12T00:06:30.256Z,101599.28
2023-12-12T00:11:32.553Z,101591.31
2023-12-12T00:16:34.810Z,101578.72
2023-12-12T00:21:37.019Z,101571.84
2023-12-12T00:26:39.175Z,101569.91
2023-12-12T00:31:41.285Z,101561.16
2023-12-12T00:36:43.354Z,101551.00
2023-12-12T00:41:50.051Z,101536.75
2023-12-12T00:46:56.333Z,101526.03
2023-12-12T00:51:58.549Z,101517.56
2023-12-12T00:57:00.577Z,101508.22
2023-12-12T01:02:03.073Z,101498.59
2023-12-12T01:07:05.132Z,101492.84
2023-12-12T01:12:10.420Z,101488.19
2023-12-12T01:17:12.479Z,101479.94
2023-12-12T01:22:14.398Z,101476.09
2023-12-12T01:27:16.510Z,101459.41
2023-12-12T01:32:18.348Z,101459.94
2023-12-12T01:37:20.740Z,101462.16
2023-12-12T01:42:26.125Z,101469.00
2023-12-12T01:47:28.765Z,101465.16
2023-12-12T01:52:31.480Z,101464.59
2023-12-12T01:57:33.694Z,101458.56
2023-12-12T02:05:14.394Z,101456.38
2023-12-12T02:10:17.259Z,101427.59
2023-12-12T02:15:20.574Z,101419.94
2023-12-12T02:20:23.075Z,101426.22
2023-12-12T02:25:25.578Z,101419.09
2023-12-12T02:30:27.935Z,101410.06
2023-12-12T02:35:30.904Z,101418.84
2023-12-12T02:40:33.408Z,101417.16
2023-12-12T02:45:43.360Z,101403.72
2023-12-12T02:50:46.037Z,101408.94
2023-12-12T02:55:55.810Z,101402.63
2023-12-12T03:00:57.921Z,101408.91
2023-12-12T03:06:00.361Z,101386.19
2023-12-12T03:11:03.046Z,101385.91
2023-12-12T03:16:14.421Z,101364.28
2023-12-12T03:21:16.775Z,101359.88
2023-12-12T03:26:19.074Z,101334.69
2023-12-12T03:31:21.083Z,101330.28
2023-12-12T03:36:23.264Z,101335.75
2023-12-12T03:41:25.577Z,101340.69
2023-12-12T03:46:27.787Z,101344.50
2023-12-12T03:51:29.979Z,101354.31
2023-12-12T03:56:31.958Z,101350.72
2023-12-12T04:01:37.921Z,101349.34
2023-12-12T04:06:48.069Z,101356.44
2023-12-12T04:11:50.155Z,101352.34
2023-12-12T04:16:52.258Z,101339.78
2023-12-12T04:21:57.282Z,101345.00
2023-12-12T04:27:00.223Z,101335.19
2023-12-12T04:32:02.512Z,101333.00
2023-12-12T04:37:05.103Z,101328.38
2023-12-12T04:42:08.528Z,101319.63
2023-12-12T04:47:11.158Z,101315.78
2023-12-12T04:52:13.578Z,101299.09
2023-12-12T04:57:17.065Z,101314.69
2023-12-12T05:08:44.305Z,101304.22
2023-12-12T05:13:49.966Z,101313.78
2023-12-12T05:18:53.176Z,101308.28
2023-12-12T05:24:00.933Z,101304.44
2023-12-12T05:29:03.482Z,101306.34
2023-12-12T05:34:06.394Z,101300.59
2023-12-12T05:39:12.391Z,101313.72
2023-12-12T05:44:14.660Z,101315.63
2023-12-12T05:49:16.836Z,101323.81
2023-12-12T05:54:20.758Z,101319.72
2023-12-12T05:59:23.896Z,101315.34
2023-12-12T06:04:25.804Z,101320.25
2023-12-12T06:09:28.385Z,101327.91
2023-12-12T06:14:30.541Z,101316.97
2023-12-12T06:19:33.001Z,101317.78
2023-12-12T06:24:35.334Z,101308.47
2023-12-12T06:29:37.888Z,101313.16
2023-12-12T06:34:41.309Z,101312.88
2023-12-12T06:39:43.618Z,101313.16
2023-12-12T06:44:46.934Z,101308.53
2023-12-12T06:49:49.278Z,101309.34
2023-12-12T06:54:51.435Z,101301.41
2023-12-12T06:59:53.701Z,101314.81
2023-12-12T07:04:55.919Z,101315.38
2023-12-12T07:10:00.785Z,101309.34
2023-12-12T07:15:03.616Z,101308.56
2023-12-12T07:20:08.454Z,101309.69
2023-12-12T07:25:10.845Z,101311.63
2023-12-12T07:30:13.490Z,101307.28
2023-12-12T07:35:17.561Z,101305.66
2023-12-12T07:40:31.489Z,101314.44
2023-12-12T07:45:33.971Z,101305.13
2023-12-12T07:50:36.254Z,101301.28
2023-12-12T07:55:38.768Z,101292.00
2023-12-12T08:00:44.127Z,101287.34
2023-12-12T08:05:54.903Z,101279.41
2023-12-12T08:10:57.391Z,101269.50
2023-12-12T08:15:59.751Z,101271.63
2023-12-12T08:21:02.089Z,101268.31
2023-12-12T08:31:27.096Z,101284.50
2023-12-12T08:36:35.800Z,101293.69
2023-12-12T08:41:41.249Z,101287.19
2023-12-12T08:46:45.322Z,101293.31
2023-12-12T08:51:49.108Z,101294.47
2023-12-12T08:56:54.262Z,101303.19
2023-12-12T09:01:59.519Z,101302.03
2023-12-12T09:07:04.397Z,101298.06
2023-12-12T09:12:09.863Z,101307.31
2023-12-12T09:17:13.096Z,101297.63
2023-12-12T09:22:16.248Z,101306.09
2023-12-12T09:27:18.472Z,101305.69
2023-12-12T09:32:20.558Z,101313.53
2023-12-12T09:37:24.026Z,101303.00
2023-12-12T09:42:27.442Z,101298.81
2023-12-12T09:47:30.731Z,101290.13
2023-12-12T09:52:42.512Z,101291.63
2023-12-12T09:57:45.320Z,101303.06
2023-12-12T10:02:47.776Z,101282.31
2023-12-12T10:07:58.212Z,101291.53
2023-12-12T10:13:07.173Z,101298.31
2023-12-12T10:18:10.242Z,101289.97
2023-12-12T10:23:12.836Z,101271.94
2023-12-12T10:28:15.424Z,101283.09
2023-12-12T10:33:17.931Z,101269.78
2023-12-12T10:38:29.875Z,101275.72
2023-12-12T10:43:32.201Z,101272.88
2023-12-12T10:48:35.022Z,101273.91
2023-12-12T10:53:38.749Z,101271.81
2023-12-12T10:58:45.360Z,101267.97
2023-12-12T11:03:52.303Z,101261.78
2023-12-12T11:09:00.688Z,101250.94
2023-12-12T11:14:03.452Z,101247.88
2023-12-12T11:19:05.704Z,101251.75
2023-12-12T11:24:08.149Z,101236.84
2023-12-12T11:29:15.693Z,101235.22
2023-12-12T11:34:18.353Z,101223.56
2023-12-12T11:39:59.123Z,101215.41
2023-12-12T11:45:09.424Z,101224.91
2023-12-12T11:50:19.553Z,101216.00
2023-12-12T11:55:23.919Z,101217.66
2023-12-12T12:00:26.370Z,101193.94
2023-12-12T12:05:28.696Z,101192.31
2023-12-12T12:10:31.161Z,101180.03
2023-12-12T12:15:33.405Z,101177.59
2023-12-12T12:20:48.185Z,101167.25
2023-12-12T12:25:51.678Z,101156.72
2023-12-12T12:30:55.454Z,101145.38
2023-12-12T12:35:58.056Z,101139.53
2023-12-12T12:41:00.819Z,101127.88
2023-12-12T12:46:09.583Z,101120.81
2023-12-12T12:51:14.289Z,101106.88
2023-12-12T12:56:16.409Z,101096.53
2023-12-12T13:01:18.542Z,101096.44
2023-12-12T13:06:20.858Z,101087.22
2023-12-12T13:11:23.153Z,101090.97
2023-12-12T13:16:28.492Z,101078.28
2023-12-12T13:21:30.993Z,101081.06
2023-12-12T13:26:33.230Z,101072.78
2023-12-12T13:31:35.574Z,101079.91
2023-12-12T13:36:38.437Z,101077.28
2023-12-12T13:41:47.885Z,101073.81
2023-12-12T13:46:51.226Z,101074.75
2023-12-12T13:51:53.782Z,101064.97
2023-12-12T13:56:56.257Z,101062.84
2023-12-12T14:02:07.606Z,101055.00
2023-12-12T14:07:11.244Z,101055.75
2023-12-12T14:12:16.679Z,101039.13
2023-12-12T14:17:18.974Z,101040.38
2023-12-12T14:22:21.284Z,101036.56
2023-12-12T14:27:25.349Z,101038.81
2023-12-12T14:32:27.627Z,101037.00
2023-12-12T14:37:30.698Z,101031.78
2023-12-12T14:42:33.445Z,101030.16
2023-12-12T14:47:37.251Z,101024.16
2023-12-12T14:52:45.173Z,101008.53
2023-12-12T14:57:50.595Z,101008.97
2023-12-12T15:02:53.649Z,101014.59
2023-12-12T15:07:56.062Z,100999.28
2023-12-12T15:12:58.604Z,101002.16
2023-12-12T15:18:01.023Z,101000.34
2023-12-12T15:23:03.694Z,100990.50
2023-12-12T15:28:23.980Z,100989.81
2023-12-12T15:33:37.212Z,100978.09
2023-12-12T15:38:39.799Z,100975.44
2023-12-12T15:43:45.334Z,100979.44
2023-12-12T15:48:47.886Z,100992.00
2023-12-12T15:53:51.554Z,101005.84
2023-12-12T15:59:03.176Z,100998.50
2023-12-12T16:04:05.911Z,100997.28
2023-12-12T16:09:08.382Z,100997.91
2023-12-12T16:14:13.240Z,100993.59
2023-12-12T16:19:15.647Z,101001.16
2023-12-12T16:24:17.845Z,101001.56
2023-12-12T16:29:20.185Z,100989.00
2023-12-12T16:34:22.662Z,100995.13
2023-12-12T16:39:25.262Z,100997.38
2023-12-12T16:44:27.365Z,100988.91
2023-12-12T16:49:30.358Z,100987.56
2023-12-12T16:54:32.794Z,101001.94
2023-12-12T16:59:35.088Z,101006.38
2023-12-12T17:04:40.444Z,101009.22
2023-12-12T17:09:46.823Z,101001.06
2023-12-12T17:14:51.008Z,101007.69
2023-12-12T17:19:54.063Z,100989.84
2023-12-12T17:24:56.879Z,100995.88
2023-12-12T17:30:00.399Z,100993.13
2023-12-12T17:35:06.117Z,101012.16
2023-12-12T17:40:17.649Z,101000.66
2023-12-12T17:45:20.256Z,101005.03
2023-12-12T17:50:23.602Z,101018.28
2023-12-12T17:55:25.888Z,101004.00
2023-12-12T18:00:28.548Z,101014.50
2023-12-12T18:05:46.015Z,101015.63
2023-12-12T18:11:01.752Z,101002.47
2023-12-12T18:16:09.387Z,101003.84
2023-12-12T18:21:11.666Z,100995.38
2023-12-12T18:26:14.284Z,101000.56
2023-12-12T18:31:17.701Z,101009.66
2023-12-12T18:36:19.997Z,101014.63
2023-12-12T18:41:22.293Z,100996.28
2023-12-12T18:46:24.523Z,100992.50
2023-12-12T18:51:26.901Z,100994.50
2023-12-12T18:56:32.281Z,100996.97
2023-12-12T19:01:34.849Z,101009.31
2023-12-12T19:06:37.078Z,100999.94
2023-12-12T19:11:43.273Z,101004.84
2023-12-12T19:16:48.993Z,101006.69
2023-12-12T19:21:54.501Z,100994.66
2023-12-12T19:26:56.820Z,100993.69
2023-12-12T19:31:59.367Z,100993.78
2023-12-12T19:37:02.786Z,100998.03
2023-12-12T19:42:06.909Z,100997.00
2023-12-12T19:47:11.106Z,100994.31
2023-12-12T19:52:13.333Z,100990.63
2023-12-12T19:57:43.970Z,100991.06
2023-12-12T20:03:07.797Z,100988.72
2023-12-12T20:08:13.396Z,100994.06
2023-12-12T20:13:15.917Z,100985.88
2023-12-12T20:18:20.235Z,100995.00
2023-12-12T20:23:22.617Z,100971.97
2023-12-12T20:28:31.623Z,100976.94
2023-12-12T20:33:33.818Z,100981.09
2023-12-12T20:38:38.228Z,100995.66
2023-12-12T20:43:40.622Z,100974.50
2023-12-12T20:48:45.861Z,100965.97
2023-12-12T20:53:48.260Z,100957.72
2023-12-12T20:58:51.754Z,100957.72
2023-12-12T21:03:54.526Z,100956.09
2023-12-12T21:08:59.412Z,100965.44
2023-12-12T21:14:02.755Z,100975.69
2023-12-12T21:19:07.054Z,100980.34
2023-12-12T21:24:13.044Z,100957.84
2023-12-12T21:29:16.209Z,100973.53
2023-12-12T21:34:19.690Z,100971.88
2023-12-12T21:39:23.601Z,100982.63
2023-12-12T21:44:26.656Z,100957.16
2023-12-12T21:49:31.526Z,100955.84
2023-12-12T21:54:33.938Z,100940.25
2023-12-12T21:59:39.780Z,100951.00
2023-12-12T22:04:45.537Z,100946.09
2023-12-12T22:10:09.481Z,100935.69
2023-12-12T22:15:40.547Z,100919.81
2023-12-12T22:20:45.921Z,100924.25
2023-12-12T22:25:49.282Z,100925.88
2023-12-12T22:30:52.378Z,100918.75
2023-12-12T22:35:55.983Z,100936.34
2023-12-12T22:41:00.092Z,100927.88
2023-12-12T22:46:02.964Z,100918.88
2023-12-12T22:51:06.920Z,100913.16
2023-12-12T22:56:15.600Z,100914.56
2023-12-12T23:01:27.375Z,100895.41
2023-12-12T23:06:39.676Z,100885.03
2023-12-12T23:11:42.284Z,100877.38
2023-12-12T23:16:52.406Z,100862.03
2023-12-12T23:21:54.618Z,100849.13
2023-12-12T23:26:58.450Z,100832.97
2023-12-12T23:32:04.405Z,100858.19
2023-12-12T23:37:07.129Z,100906.75
2023-12-12T23:42:10.397Z,100889.50
2023-12-12T23:47:17.836Z,100885.16
2023-12-12T23:52:23.163Z,100876.38
2023-12-12T23:57:27.919Z,100865.72
